createdAt,value
2018-10-21T00:04:24.153Z,10.00
2018-10-21T00:14:27.396Z,9.80
2018-10-21T00:24:30.636Z,9.80
2018-10-21T00:34:33.912Z,9.70
2018-10-21T00:44:37.124Z,9.30
2018-10-21T00:54:40.469Z,9.40
2018-10-21T01:04:43.734Z,9.40
2018-10-21T01:14:46.971Z,9.10
2018-10-21T01:24:50.197Z,9.00
2018-10-21T01:34:53.595Z,8.80
2018-10-21T01:44:56.887Z,8.70
2018-10-21T01:55:00.089Z,8.80
2018-10-21T02:05:03.337Z,8.90
2018-10-21T02:15:07.385Z,8.60
2018-10-21T02:25:11.476Z,8.50
2018-10-21T02:35:15.405Z,8.20
2018-10-21T02:45:18.707Z,8.40
2018-10-21T02:55:21.909Z,8.30
2018-10-21T03:05:25.186Z,8.00
2018-10-21T03:15:28.401Z,8.10
2018-10-21T03:25:31.890Z,8.10
2018-10-21T03:35:35.169Z,8.20
2018-10-21T03:45:38.393Z,8.30
2018-10-21T03:55:42.671Z,8.30
2018-10-21T04:05:45.908Z,8.40
2018-10-21T04:15:49.116Z,8.40
2018-10-21T04:25:52.361Z,8.30
2018-10-21T04:35:55.611Z,8.20
2018-10-21T04:45:59.328Z,8.50
2018-10-21T04:56:02.548Z,8.70
2018-10-21T05:06:06.195Z,8.80
2018-10-21T05:16:09.471Z,9.00
2018-10-21T05:26:12.656Z,8.90
2018-10-21T05:36:15.889Z,9.10
2018-10-21T05:46:37.098Z,8.90
2018-10-21T05:56:44.605Z,8.50
2018-10-21T06:06:47.999Z,8.30
2018-10-21T06:16:52.532Z,8.20
2018-10-21T06:26:55.824Z,8.50
2018-10-21T06:36:59.353Z,8.70
2018-10-21T06:47:02.730Z,9.00
2018-10-21T06:57:06.221Z,9.10
2018-10-21T07:07:09.674Z,9.00
2018-10-21T07:17:13.092Z,9.00
2018-10-21T07:27:16.417Z,9.30
2018-10-21T07:37:19.937Z,9.30
2018-10-21T07:47:23.414Z,9.30
2018-10-21T07:57:27.022Z,9.30
2018-10-21T08:07:41.794Z,9.70
2018-10-21T08:17:45.149Z,9.60
2018-10-21T08:27:48.462Z,9.80
2018-10-21T08:37:52.204Z,10.40
2018-10-21T08:47:55.732Z,10.70
2018-10-21T08:57:59.114Z,11.10
2018-10-21T09:08:02.519Z,11.10
2018-10-21T09:18:05.855Z,11.50
2018-10-21T09:28:09.532Z,11.70
2018-10-21T09:38:12.837Z,11.90
2018-10-21T09:48:16.099Z,12.30
2018-10-21T09:58:19.527Z,12.80
2018-10-21T10:08:22.877Z,13.30
2018-10-21T10:18:26.445Z,13.60
2018-10-21T10:28:29.856Z,13.80
2018-10-21T10:38:33.094Z,14.20
2018-10-21T10:48:36.480Z,14.40
2018-10-21T10:58:39.766Z,14.70
2018-10-21T11:08:43.083Z,14.90
2018-10-21T11:18:46.533Z,15.00
2018-10-21T11:28:49.932Z,15.30
2018-10-21T11:38:53.332Z,15.50
2018-10-21T11:48:56.578Z,15.80
2018-10-21T11:58:59.817Z,15.80
2018-10-21T12:09:03.189Z,15.80
2018-10-21T12:19:06.489Z,15.80
2018-10-21T12:29:09.826Z,16.10
2018-10-21T12:39:13.055Z,16.20
2018-10-21T12:49:16.334Z,16.20
2018-10-21T12:59:19.665Z,16.20
2018-10-21T13:09:22.987Z,16.40
2018-10-21T13:19:26.323Z,16.50
2018-10-21T13:29:29.584Z,16.60
2018-10-21T13:39:33.127Z,16.70
2018-10-21T13:49:36.473Z,16.70
2018-10-21T13:59:39.750Z,16.80
2018-10-21T14:09:43.000Z,16.90
2018-10-21T14:19:46.232Z,16.90
2018-10-21T14:29:49.477Z,17.00
2018-10-21T14:39:52.717Z,17.10
2018-10-21T14:49:56.021Z,17.10
2018-10-21T14:59:59.362Z,17.30
2018-10-21T15:10:02.570Z,17.50
2018-10-21T15:20:06.519Z,17.10
2018-10-21T15:30:10.615Z,16.80
2018-10-21T15:40:13.998Z,16.50
2018-10-21T15:50:17.269Z,16.20
2018-10-21T16:00:20.761Z,16.00
2018-10-21T16:10:24.078Z,15.80
2018-10-21T16:20:27.469Z,15.50
2018-10-21T16:30:30.831Z,15.10
2018-10-21T16:40:34.143Z,14.80
2018-10-21T16:50:37.896Z,14.40
2018-10-21T17:00:41.128Z,14.10
2018-10-21T17:10:44.429Z,13.90
2018-10-21T17:20:47.908Z,13.60
2018-10-21T17:30:51.125Z,13.40
2018-10-21T17:40:54.696Z,13.20
2018-10-21T17:50:57.996Z,13.00
2018-10-21T18:01:01.736Z,12.80
2018-10-21T18:11:05.301Z,12.60
2018-10-21T18:21:08.552Z,12.40
2018-10-21T18:31:11.874Z,12.20
2018-10-21T18:41:15.818Z,12.00
2018-10-21T18:51:18.845Z,11.90
2018-10-21T19:01:22.092Z,11.70
2018-10-21T19:11:25.358Z,11.50
2018-10-21T19:21:28.635Z,11.30
2018-10-21T19:31:31.860Z,11.10
2018-10-21T19:41:35.093Z,11.00
2018-10-21T19:51:38.333Z,10.80
2018-10-21T20:01:41.622Z,10.60
2018-10-21T20:11:44.857Z,10.60
2018-10-21T20:21:48.167Z,10.50
2018-10-21T20:31:51.400Z,10.30
2018-10-21T20:41:54.715Z,10.20
2018-10-21T20:51:57.920Z,10.00
2018-10-21T21:02:01.141Z,10.00
2018-10-21T21:12:04.862Z,9.90
2018-10-21T21:22:08.139Z,9.80
2018-10-21T21:32:11.349Z,9.70
2018-10-21T21:42:14.645Z,9.60
2018-10-21T21:52:17.848Z,9.60
2018-10-21T22:02:21.062Z,9.40
2018-10-21T22:12:24.289Z,9.00
2018-10-21T22:22:27.541Z,8.90
2018-10-21T22:32:30.765Z,8.90
2018-10-21T22:42:34.025Z,8.90
2018-10-21T22:52:37.261Z,8.50
2018-10-21T23:02:40.513Z,8.60
2018-10-21T23:12:43.947Z,8.50
2018-10-21T23:22:47.222Z,8.40
2018-10-21T23:32:51.408Z,8.30
2018-10-21T23:42:54.648Z,8.20
2018-10-21T23:52:57.902Z,8.20
